createdAt,value
2022-07-29T00:03:19.948Z,14.52
2022-07-29T00:08:27.232Z,14.49
2022-07-29T00:13:34.280Z,14.49
2022-07-29T00:18:41.977Z,14.46
2022-07-29T00:23:49.118Z,14.39
2022-07-29T00:29:17.175Z,14.34
2022-07-29T00:34:40.329Z,14.28
2022-07-29T00:39:47.455Z,14.21
2022-07-29T00:44:54.927Z,14.16
2022-07-29T00:50:01.984Z,14.11
2022-07-29T00:55:11.645Z,14.08
2022-07-29T01:00:22.728Z,14.08
2022-07-29T01:05:50.070Z,14.05
2022-07-29T01:10:56.991Z,13.98
2022-07-29T01:16:12.976Z,13.94
2022-07-29T01:21:50.313Z,13.81
2022-07-29T01:27:04.259Z,13.71
2022-07-29T01:32:18.084Z,13.62
2022-07-29T01:37:47.490Z,13.56
2022-07-29T01:42:58.140Z,13.54
2022-07-29T01:48:09.169Z,13.53
2022-07-29T01:53:15.351Z,13.48
2022-07-29T01:58:24.712Z,13.43
2022-07-29T02:03:34.760Z,13.34
2022-07-29T02:08:43.111Z,13.25
2022-07-29T02:13:51.933Z,13.20
2022-07-29T02:19:00.894Z,13.10
2022-07-29T02:24:10.767Z,13.01
2022-07-29T02:29:19.605Z,12.97
2022-07-29T02:34:27.657Z,12.94
2022-07-29T02:39:36.637Z,12.94
2022-07-29T02:44:44.128Z,12.95
2022-07-29T02:49:59.010Z,12.98
2022-07-29T02:55:19.943Z,13.00
2022-07-29T03:00:31.233Z,13.02
2022-07-29T03:05:39.442Z,12.98
2022-07-29T03:10:48.464Z,12.92
2022-07-29T03:15:56.102Z,12.87
2022-07-29T03:21:03.383Z,12.86
2022-07-29T03:26:10.385Z,12.85
2022-07-29T03:31:17.456Z,12.88
2022-07-29T03:36:25.921Z,12.91
2022-07-29T03:41:33.949Z,12.95
2022-07-29T03:46:44.804Z,12.97
2022-07-29T03:51:52.372Z,12.97
2022-07-29T03:57:04.082Z,12.97
2022-07-29T04:02:14.875Z,12.97
2022-07-29T04:07:23.757Z,13.01
2022-07-29T04:12:30.932Z,13.08
2022-07-29T04:17:38.004Z,13.20
2022-07-29T04:22:45.076Z,13.34
2022-07-29T04:28:04.380Z,13.53
2022-07-29T04:33:11.708Z,13.78
2022-07-29T04:38:18.696Z,14.07
2022-07-29T04:43:25.670Z,14.50
2022-07-29T04:48:33.959Z,14.92
2022-07-29T04:53:41.042Z,15.37
2022-07-29T04:58:48.592Z,15.98
2022-07-29T05:03:59.970Z,16.65
2022-07-29T05:09:07.810Z,17.06
2022-07-29T05:14:15.434Z,17.53
2022-07-29T05:19:22.775Z,17.81
2022-07-29T05:24:29.760Z,18.09
2022-07-29T05:29:42.922Z,18.49
2022-07-29T05:34:52.510Z,18.64
2022-07-29T05:39:59.619Z,18.56
2022-07-29T05:45:08.260Z,18.77
2022-07-29T05:50:15.426Z,19.05
2022-07-29T05:55:22.499Z,19.11
2022-07-29T06:00:29.510Z,19.23
2022-07-29T06:05:36.591Z,19.49
2022-07-29T06:10:46.520Z,19.77
2022-07-29T06:15:53.885Z,19.92
2022-07-29T06:21:00.932Z,20.07
2022-07-29T06:26:08.782Z,20.50
2022-07-29T06:31:15.799Z,20.65
2022-07-29T06:36:25.008Z,20.72
2022-07-29T06:41:31.427Z,20.85
2022-07-29T06:46:38.621Z,21.12
2022-07-29T06:51:45.711Z,21.55
2022-07-29T06:56:52.677Z,21.82
2022-07-29T07:01:59.567Z,21.98
2022-07-29T07:07:06.832Z,22.26
2022-07-29T07:12:13.816Z,22.61
2022-07-29T07:17:20.677Z,22.87
2022-07-29T07:22:27.948Z,23.04
2022-07-29T07:27:35.085Z,23.25
2022-07-29T07:32:42.605Z,23.54
2022-07-29T07:37:49.696Z,23.79
2022-07-29T07:42:56.724Z,24.03
2022-07-29T07:48:03.928Z,24.31
2022-07-29T07:53:11.067Z,24.50
2022-07-29T07:58:17.925Z,24.50
2022-07-29T08:03:25.041Z,24.49
2022-07-29T08:08:31.926Z,24.59
2022-07-29T08:13:40.228Z,24.88
2022-07-29T08:18:48.637Z,25.18
2022-07-29T08:24:15.506Z,25.47
2022-07-29T08:29:22.677Z,25.72
2022-07-29T08:34:30.293Z,25.93
2022-07-29T08:39:37.422Z,26.18
2022-07-29T08:44:44.493Z,26.50
2022-07-29T08:49:51.497Z,26.90
2022-07-29T08:54:58.850Z,27.10
2022-07-29T09:00:11.836Z,27.36
2022-07-29T09:05:19.824Z,27.51
2022-07-29T09:10:27.157Z,27.48
2022-07-29T09:15:34.437Z,27.34
2022-07-29T09:20:59.064Z,27.27
2022-07-29T09:26:12.800Z,27.25
2022-07-29T09:31:28.792Z,27.33
2022-07-29T09:36:43.399Z,27.44
2022-07-29T09:41:53.965Z,27.59
2022-07-29T09:47:07.046Z,27.70
2022-07-29T09:52:14.496Z,27.81
2022-07-29T09:57:31.179Z,27.84
2022-07-29T10:02:40.325Z,27.93
2022-07-29T10:07:53.930Z,28.29
2022-07-29T10:13:08.783Z,28.41
2022-07-29T10:18:21.059Z,28.43
2022-07-29T10:23:28.427Z,28.58
2022-07-29T10:28:37.481Z,28.70
2022-07-29T10:33:57.399Z,28.66
2022-07-29T10:39:16.991Z,28.62
2022-07-29T10:44:31.076Z,28.42
2022-07-29T10:55:08.003Z,29.14
2022-07-29T11:00:39.299Z,29.53
2022-07-29T11:06:08.822Z,29.84
2022-07-29T11:11:44.010Z,30.24
2022-07-29T11:17:07.238Z,30.54
2022-07-29T11:22:33.315Z,30.66
2022-07-29T11:27:40.706Z,30.94
2022-07-29T11:32:50.086Z,31.12
2022-07-29T11:38:32.101Z,31.11
2022-07-29T11:43:53.483Z,31.40
2022-07-29T11:49:02.147Z,31.42
2022-07-29T11:54:27.277Z,31.58
2022-07-29T11:59:40.831Z,31.69
2022-07-29T12:04:55.663Z,31.89
2022-07-29T12:10:06.157Z,32.08
2022-07-29T12:15:21.484Z,31.90
2022-07-29T12:20:31.797Z,31.74
2022-07-29T12:25:40.936Z,31.81
2022-07-29T12:30:51.759Z,32.55
2022-07-29T12:36:06.809Z,33.11
2022-07-29T12:41:14.799Z,33.94
2022-07-29T12:46:21.996Z,34.66
2022-07-29T12:51:41.720Z,35.07
2022-07-29T12:56:48.646Z,35.36
2022-07-29T13:01:56.264Z,36.35
2022-07-29T13:07:07.028Z,36.79
2022-07-29T13:12:15.955Z,37.91
2022-07-29T13:17:24.890Z,38.69
2022-07-29T13:22:31.841Z,39.07
2022-07-29T13:27:40.811Z,39.17
2022-07-29T13:32:48.373Z,37.70
2022-07-29T13:37:55.416Z,36.19
2022-07-29T13:43:02.370Z,35.64
2022-07-29T13:48:10.173Z,34.67
2022-07-29T13:53:18.179Z,33.79
2022-07-29T13:58:25.543Z,32.97
2022-07-29T14:03:33.830Z,32.61
2022-07-29T14:08:40.994Z,32.68
2022-07-29T14:13:48.368Z,32.05
2022-07-29T14:18:55.943Z,31.79
2022-07-29T14:24:03.399Z,31.61
2022-07-29T14:29:23.565Z,31.54
2022-07-29T14:34:44.148Z,31.58
2022-07-29T14:39:51.495Z,31.41
2022-07-29T14:44:58.787Z,31.51
2022-07-29T14:50:07.267Z,32.04
2022-07-29T14:55:19.787Z,32.42
2022-07-29T15:00:27.744Z,32.57
2022-07-29T15:05:36.171Z,32.38
2022-07-29T15:10:43.172Z,32.11
2022-07-29T15:15:51.228Z,31.57
2022-07-29T15:20:58.225Z,31.09
2022-07-29T15:26:08.944Z,30.59
2022-07-29T15:31:16.241Z,30.27
2022-07-29T15:36:50.840Z,30.14
2022-07-29T15:41:50.381Z,30.51
2022-07-29T15:47:07.382Z,30.85
2022-07-29T15:52:14.877Z,30.94
2022-07-29T15:57:21.957Z,30.59
2022-07-29T16:02:28.981Z,30.22
2022-07-29T16:07:38.941Z,29.65
2022-07-29T16:12:45.958Z,29.26
2022-07-29T16:17:53.289Z,29.00
2022-07-29T16:23:00.255Z,29.15
2022-07-29T16:28:08.471Z,29.24
2022-07-29T16:33:15.637Z,29.33
2022-07-29T16:38:22.844Z,29.28
2022-07-29T16:43:29.861Z,29.51
2022-07-29T16:48:38.851Z,29.78
2022-07-29T16:53:48.984Z,30.15
2022-07-29T16:59:00.183Z,30.45
2022-07-29T17:04:07.405Z,30.66
2022-07-29T17:09:16.073Z,30.31
2022-07-29T17:14:26.069Z,29.98
2022-07-29T17:19:35.481Z,29.76
2022-07-29T17:24:42.911Z,29.59
2022-07-29T17:29:50.744Z,29.40
2022-07-29T17:34:58.568Z,29.13
2022-07-29T17:40:06.103Z,28.69
2022-07-29T17:45:13.315Z,28.34
2022-07-29T17:50:20.357Z,27.86
2022-07-29T17:55:27.374Z,27.32
2022-07-29T18:00:34.382Z,26.82
2022-07-29T18:05:43.047Z,26.31
2022-07-29T18:10:50.171Z,25.93
2022-07-29T18:16:00.274Z,25.63
2022-07-29T18:21:08.736Z,25.39
2022-07-29T18:26:16.108Z,25.17
2022-07-29T18:31:23.104Z,24.97
2022-07-29T18:36:31.002Z,24.75
2022-07-29T18:41:50.022Z,24.49
2022-07-29T18:46:58.457Z,24.32
2022-07-29T18:52:06.140Z,24.19
2022-07-29T18:57:53.291Z,24.06
2022-07-29T19:02:40.566Z,23.95
2022-07-29T19:15:20.076Z,23.66
2022-07-29T19:20:29.116Z,23.46
2022-07-29T19:25:37.475Z,23.22
2022-07-29T19:31:00.786Z,22.99
2022-07-29T19:36:08.503Z,22.75
2022-07-29T19:41:18.283Z,22.48
2022-07-29T19:46:29.977Z,22.20
2022-07-29T19:51:42.622Z,21.92
2022-07-29T19:56:50.127Z,21.67
2022-07-29T20:01:57.682Z,21.39
2022-07-29T20:07:04.863Z,21.10
2022-07-29T20:12:13.858Z,20.89
2022-07-29T20:17:22.475Z,20.71
2022-07-29T20:22:29.753Z,20.50
2022-07-29T20:27:41.042Z,20.39
2022-07-29T20:32:48.751Z,20.34
2022-07-29T20:37:56.764Z,20.30
2022-07-29T20:43:05.998Z,20.27
2022-07-29T20:48:20.583Z,20.19
2022-07-29T20:53:29.261Z,20.16
2022-07-29T20:58:36.705Z,20.21
2022-07-29T21:03:44.079Z,20.25
2022-07-29T21:08:51.354Z,20.23
2022-07-29T21:13:58.401Z,20.15
2022-07-29T21:19:05.385Z,20.04
2022-07-29T21:24:12.879Z,19.93
2022-07-29T21:29:20.383Z,19.78
2022-07-29T21:34:28.677Z,19.65
2022-07-29T21:39:42.378Z,19.50
2022-07-29T21:44:50.113Z,19.32
2022-07-29T21:49:57.158Z,19.19
2022-07-29T21:55:04.330Z,19.08
2022-07-29T22:00:15.816Z,19.00
2022-07-29T22:05:23.040Z,18.92
2022-07-29T22:10:31.927Z,18.82
2022-07-29T22:15:39.863Z,18.73
2022-07-29T22:20:49.017Z,18.62
2022-07-29T22:25:57.352Z,18.52
2022-07-29T22:31:04.659Z,18.43
2022-07-29T22:36:12.895Z,18.37
2022-07-29T22:41:19.842Z,18.37
2022-07-29T22:46:26.782Z,18.40
2022-07-29T22:51:34.171Z,18.37
2022-07-29T22:56:41.068Z,18.32
2022-07-29T23:01:48.347Z,18.24
2022-07-29T23:06:55.359Z,18.19
2022-07-29T23:12:02.428Z,18.13
2022-07-29T23:17:09.511Z,18.08
2022-07-29T23:22:16.595Z,18.06
2022-07-29T23:27:25.660Z,18.04
2022-07-29T23:32:32.747Z,17.98
2022-07-29T23:37:39.863Z,17.94
2022-07-29T23:42:47.071Z,17.88
2022-07-29T23:47:53.999Z,17.84
2022-07-29T23:53:00.780Z,17.80
2022-07-29T23:58:08.602Z,17.79
